createdAt,value
2019-06-07T00:00:38.089Z,7.80
2019-06-07T00:01:22.453Z,9.40
2019-06-07T00:02:21.457Z,9.10
2019-06-07T00:03:27.621Z,7.60
2019-06-07T00:04:22.443Z,9.30
2019-06-07T00:05:21.403Z,8.70
2019-06-07T00:06:25.509Z,8.80
2019-06-07T00:07:21.933Z,8.20
2019-06-07T00:08:28.038Z,8.70
2019-06-07T00:09:22.889Z,7.50
2019-06-07T00:10:35.967Z,8.80
2019-06-07T00:11:22.344Z,7.60
2019-06-07T00:12:21.778Z,8.80
2019-06-07T00:13:21.316Z,9.30
2019-06-07T00:14:21.423Z,7.50
2019-06-07T00:15:28.415Z,8.00
2019-06-07T00:16:23.360Z,7.20
2019-06-07T00:17:21.282Z,7.40
2019-06-07T00:18:25.830Z,7.60
2019-06-07T00:19:22.256Z,7.90
2019-06-07T00:20:23.670Z,7.50
2019-06-07T00:22:12.305Z,7.70
2019-06-07T00:22:32.263Z,9.00
2019-06-07T00:23:23.016Z,8.50
2019-06-07T00:24:22.104Z,8.10
2019-06-07T00:25:24.281Z,7.90
2019-06-07T00:26:21.463Z,8.20
2019-06-07T00:27:22.667Z,9.40
2019-06-07T00:28:21.148Z,8.70
2019-06-07T00:29:21.805Z,8.40
2019-06-07T00:30:39.587Z,8.20
2019-06-07T00:31:24.525Z,9.70
2019-06-07T00:32:22.022Z,8.70
2019-06-07T00:33:24.456Z,9.50
2019-06-07T00:34:23.179Z,7.90
2019-06-07T00:35:22.551Z,7.30
2019-06-07T00:36:23.251Z,7.90
2019-06-07T00:37:25.150Z,8.90
2019-06-07T00:38:22.031Z,9.40
2019-06-07T00:39:25.207Z,7.90
2019-06-07T00:40:31.487Z,8.80
2019-06-07T00:41:22.408Z,7.70
2019-06-07T00:42:23.777Z,8.60
2019-06-07T00:43:27.922Z,8.10
2019-06-07T00:44:23.412Z,8.30
2019-06-07T00:45:22.460Z,8.40
2019-06-07T00:46:25.059Z,8.10
2019-06-07T00:47:25.028Z,8.40
2019-06-07T00:48:31.798Z,8.40
2019-06-07T00:49:40.120Z,8.80
2019-06-07T00:50:24.192Z,10.60
2019-06-07T00:51:21.926Z,8.10
2019-06-07T00:53:11.645Z,9.10
2019-06-07T00:53:31.787Z,9.00
2019-06-07T00:54:24.410Z,8.50
2019-06-07T00:55:25.788Z,8.80
2019-06-07T00:56:23.416Z,8.80
2019-06-07T00:57:22.218Z,8.60
2019-06-07T00:58:24.335Z,9.00
2019-06-07T00:59:28.620Z,11.80
2019-06-07T01:00:23.619Z,8.50
2019-06-07T01:01:24.838Z,9.00
2019-06-07T01:02:24.886Z,9.10
2019-06-07T01:03:25.176Z,9.20
2019-06-07T01:04:22.927Z,8.50
2019-06-07T01:05:28.123Z,9.20
2019-06-07T01:06:23.441Z,8.20
2019-06-07T01:07:21.976Z,9.20
2019-06-07T01:08:22.732Z,8.20
2019-06-07T01:09:23.924Z,8.60
2019-06-07T01:10:46.491Z,9.20
2019-06-07T01:11:25.378Z,10.10
2019-06-07T01:12:22.093Z,8.90
2019-06-07T01:13:22.731Z,10.20
2019-06-07T01:14:24.152Z,9.10
2019-06-07T01:15:23.467Z,8.80
2019-06-07T01:16:23.673Z,8.80
2019-06-07T01:17:32.618Z,9.10
2019-06-07T01:18:41.045Z,9.20
2019-06-07T01:19:25.909Z,9.50
2019-06-07T01:20:23.818Z,9.20
2019-06-07T01:21:23.773Z,9.40
2019-06-07T01:22:23.487Z,11.30
2019-06-07T01:23:59.317Z,10.50
2019-06-07T01:24:24.558Z,9.40
2019-06-07T01:25:23.808Z,11.50
2019-06-07T01:26:23.777Z,9.10
2019-06-07T01:27:22.644Z,9.80
2019-06-07T01:28:23.858Z,8.80
2019-06-07T01:29:22.291Z,9.50
2019-06-07T01:30:24.119Z,8.40
2019-06-07T01:31:24.848Z,9.80
2019-06-07T01:32:23.873Z,9.70
2019-06-07T01:33:23.491Z,9.20
2019-06-07T01:34:25.208Z,9.20
2019-06-07T01:35:22.070Z,8.90
2019-06-07T01:36:22.409Z,8.70
2019-06-07T01:37:22.739Z,8.70
2019-06-07T01:38:24.470Z,9.20
2019-06-07T01:39:24.068Z,9.20
2019-06-07T01:40:27.733Z,9.10
2019-06-07T01:41:23.617Z,9.20
2019-06-07T01:42:21.993Z,9.30
2019-06-07T01:43:23.287Z,9.60
2019-06-07T01:44:24.177Z,10.40
2019-06-07T01:45:21.438Z,9.10
2019-06-07T01:46:20.750Z,9.70
2019-06-07T01:47:24.517Z,8.80
2019-06-07T01:48:23.143Z,9.30
2019-06-07T01:49:22.163Z,9.10
2019-06-07T01:50:23.356Z,9.60
2019-06-07T01:51:22.018Z,8.90
2019-06-07T01:52:23.476Z,9.00
2019-06-07T01:53:23.711Z,9.70
2019-06-07T01:54:52.179Z,8.30
2019-06-07T01:55:23.553Z,9.90
2019-06-07T01:56:22.539Z,9.20
2019-06-07T01:57:36.595Z,10.30
2019-06-07T01:58:22.237Z,8.80
2019-06-07T01:59:21.885Z,9.80
2019-06-07T02:00:22.073Z,8.60
2019-06-07T02:01:21.663Z,9.40
2019-06-07T02:02:20.208Z,8.00
2019-06-07T02:03:22.305Z,8.90
2019-06-07T02:04:23.297Z,9.40
2019-06-07T02:05:21.534Z,9.70
2019-06-07T02:06:21.035Z,8.80
2019-06-07T02:07:24.067Z,9.00
2019-06-07T02:08:22.230Z,10.00
2019-06-07T02:09:20.961Z,9.90
2019-06-07T02:10:24.054Z,9.80
2019-06-07T02:11:22.448Z,10.60
2019-06-07T02:12:28.170Z,8.80
2019-06-07T02:13:21.309Z,9.00
2019-06-07T02:14:22.321Z,9.00
2019-06-07T02:15:22.778Z,9.00
2019-06-07T02:16:21.698Z,9.20
2019-06-07T02:17:20.856Z,9.40
2019-06-07T02:18:21.795Z,9.60
2019-06-07T02:19:19.942Z,8.70
2019-06-07T02:20:20.352Z,9.10
2019-06-07T02:21:23.233Z,10.00
2019-06-07T02:22:21.374Z,8.90
2019-06-07T02:23:20.673Z,10.00
2019-06-07T02:24:24.464Z,9.50
2019-06-07T02:25:39.514Z,8.90
2019-06-07T02:26:20.815Z,9.30
2019-06-07T02:27:20.752Z,8.90
2019-06-07T02:28:31.989Z,8.70
2019-06-07T02:29:20.834Z,9.20
2019-06-07T02:30:44.919Z,7.70
2019-06-07T02:31:21.808Z,8.60
2019-06-07T02:32:21.583Z,9.10
2019-06-07T02:33:24.104Z,8.80
2019-06-07T02:34:21.527Z,8.40
2019-06-07T02:35:22.548Z,8.50
2019-06-07T02:36:25.592Z,8.50
2019-06-07T02:37:21.616Z,9.80
2019-06-07T02:38:19.687Z,8.10
2019-06-07T02:39:19.714Z,8.70
2019-06-07T02:40:19.669Z,9.50
2019-06-07T02:41:19.692Z,9.70
2019-06-07T02:42:19.639Z,12.80
2019-06-07T02:43:19.629Z,11.00
2019-06-07T02:44:19.660Z,9.80
2019-06-07T02:45:19.610Z,9.90
2019-06-07T02:46:28.054Z,8.40
2019-06-07T02:47:20.583Z,9.80
2019-06-07T02:48:19.615Z,8.50
2019-06-07T02:49:19.563Z,10.60
2019-06-07T02:50:19.594Z,8.60
2019-06-07T02:51:19.540Z,9.60
2019-06-07T02:52:19.530Z,9.70
2019-06-07T02:53:19.517Z,8.60
2019-06-07T02:54:19.507Z,9.80
2019-06-07T02:55:19.551Z,8.60
2019-06-07T02:56:46.613Z,10.10
2019-06-07T02:57:20.474Z,9.00
2019-06-07T02:58:19.526Z,8.20
2019-06-07T02:59:45.530Z,8.70
2019-06-07T03:00:45.908Z,8.90
2019-06-07T03:01:20.427Z,9.80
2019-06-07T03:02:19.424Z,10.00
2019-06-07T03:03:19.479Z,10.00
2019-06-07T03:04:19.435Z,9.80
2019-06-07T03:05:19.408Z,9.70
2019-06-07T03:06:19.415Z,9.70
2019-06-07T03:07:19.391Z,10.60
2019-06-07T03:08:19.350Z,10.20
2019-06-07T03:09:19.336Z,10.20
2019-06-07T03:10:19.324Z,10.00
2019-06-07T03:11:19.375Z,9.90
2019-06-07T03:12:19.303Z,9.70
2019-06-07T03:13:19.308Z,14.80
2019-06-07T03:14:19.278Z,10.90
2019-06-07T03:15:32.741Z,11.00
2019-06-07T03:16:20.299Z,10.60
2019-06-07T03:17:19.249Z,11.20
2019-06-07T03:18:19.240Z,10.80
2019-06-07T03:19:19.234Z,10.20
2019-06-07T03:20:19.222Z,11.20
2019-06-07T03:21:19.208Z,11.50
2019-06-07T03:22:19.231Z,10.20
2019-06-07T03:23:19.181Z,11.20
2019-06-07T03:24:19.171Z,10.50
2019-06-07T03:25:19.160Z,10.90
2019-06-07T03:26:19.145Z,11.10
2019-06-07T03:27:43.149Z,10.50
2019-06-07T03:28:20.123Z,10.70
2019-06-07T03:29:19.115Z,11.40
2019-06-07T03:31:20.100Z,11.40
2019-06-07T03:32:19.087Z,11.30
2019-06-07T03:33:19.112Z,10.70
2019-06-07T03:34:19.055Z,12.10
2019-06-07T03:35:19.045Z,13.00
2019-06-07T03:36:25.681Z,10.80
2019-06-07T03:37:20.030Z,11.80
2019-06-07T03:38:19.063Z,12.70
2019-06-07T03:39:19.041Z,11.60
2019-06-07T03:40:18.996Z,12.00
2019-06-07T03:41:19.020Z,11.30
2019-06-07T03:42:18.983Z,11.90
2019-06-07T03:43:18.955Z,12.50
2019-06-07T03:44:18.945Z,12.50
2019-06-07T03:45:18.970Z,12.10
2019-06-07T03:46:18.921Z,14.00
2019-06-07T03:47:18.909Z,12.30
2019-06-07T03:48:18.910Z,13.80
2019-06-07T03:49:18.887Z,12.30
2019-06-07T03:50:18.972Z,13.20
2019-06-07T03:51:25.288Z,13.50
2019-06-07T03:52:19.869Z,14.40
2019-06-07T03:53:18.844Z,12.50
2019-06-07T03:54:18.832Z,13.70
2019-06-07T03:55:18.871Z,13.60
2019-06-07T03:56:18.904Z,12.90
2019-06-07T03:57:18.798Z,13.90
2019-06-07T03:58:31.558Z,13.10
2019-06-07T03:59:19.819Z,15.20
2019-06-07T04:00:18.769Z,14.30
2019-06-07T04:01:18.757Z,13.90
2019-06-07T04:02:18.756Z,13.80
2019-06-07T04:03:33.603Z,14.40
2019-06-07T04:04:19.717Z,15.60
2019-06-07T04:05:18.749Z,14.80
2019-06-07T04:06:18.697Z,14.70
2019-06-07T04:07:18.686Z,14.00
2019-06-07T04:08:18.702Z,14.30
2019-06-07T04:09:18.668Z,14.70
2019-06-07T04:10:18.725Z,15.10
2019-06-07T04:11:18.642Z,15.00
2019-06-07T04:12:18.630Z,15.40
2019-06-07T04:13:18.624Z,15.10
2019-06-07T04:14:18.606Z,15.10
2019-06-07T04:15:18.595Z,15.50
2019-06-07T04:16:18.666Z,15.00
2019-06-07T04:17:18.576Z,16.00
2019-06-07T04:18:18.562Z,15.60
2019-06-07T04:19:18.575Z,14.60
2019-06-07T04:20:18.576Z,15.30
2019-06-07T04:21:18.529Z,15.80
2019-06-07T04:22:18.597Z,15.60
2019-06-07T04:23:27.914Z,14.20
2019-06-07T04:24:19.498Z,14.60
2019-06-07T04:25:18.484Z,14.90
2019-06-07T04:26:18.513Z,16.10
2019-06-07T04:27:18.462Z,14.10
2019-06-07T04:28:18.479Z,14.60
2019-06-07T04:29:33.091Z,14.70
2019-06-07T04:30:19.480Z,14.50
2019-06-07T04:31:18.418Z,14.10
2019-06-07T04:32:18.406Z,14.60
2019-06-07T04:33:18.397Z,15.20
2019-06-07T04:34:18.478Z,14.70
2019-06-07T04:35:18.725Z,15.30
2019-06-07T04:36:19.874Z,14.80
2019-06-07T04:37:19.403Z,14.70
2019-06-07T04:38:18.340Z,15.70
2019-06-07T04:39:18.435Z,15.30
2019-06-07T04:40:18.355Z,15.40
2019-06-07T04:41:18.323Z,15.30
2019-06-07T04:42:18.338Z,15.10
2019-06-07T04:43:18.281Z,15.70
2019-06-07T04:44:18.271Z,16.10
2019-06-07T04:45:33.749Z,15.80
2019-06-07T04:46:19.250Z,15.30
2019-06-07T04:47:18.238Z,16.30
2019-06-07T04:48:18.229Z,16.60
2019-06-07T04:49:18.213Z,16.10
2019-06-07T04:50:18.252Z,14.90
2019-06-07T04:51:18.215Z,15.40
2019-06-07T04:52:18.180Z,16.20
2019-06-07T04:53:18.216Z,15.80
2019-06-07T04:54:18.262Z,16.30
2019-06-07T04:55:18.150Z,15.10
2019-06-07T04:56:18.134Z,16.10
2019-06-07T04:57:18.236Z,15.30
2019-06-07T04:58:18.115Z,16.40
2019-06-07T05:00:00.487Z,17.20
2019-06-07T05:00:49.719Z,17.00
2019-06-07T05:01:27.200Z,16.50
2019-06-07T05:02:19.075Z,16.20
2019-06-07T05:03:18.098Z,17.20
2019-06-07T05:04:18.100Z,16.80
2019-06-07T05:05:18.035Z,16.40
2019-06-07T05:06:18.054Z,17.20
2019-06-07T05:07:18.062Z,15.70
2019-06-07T05:08:27.947Z,17.20
2019-06-07T05:09:19.042Z,17.10
2019-06-07T05:10:17.990Z,16.10
2019-06-07T05:11:18.019Z,16.70
2019-06-07T05:12:17.987Z,17.40
2019-06-07T05:13:17.995Z,16.10
2019-06-07T05:14:18.062Z,17.40
2019-06-07T05:15:17.949Z,16.40
2019-06-07T05:16:17.939Z,16.20
2019-06-07T05:17:17.950Z,16.10
2019-06-07T05:18:17.893Z,16.60
2019-06-07T05:19:17.960Z,16.00
2019-06-07T05:20:17.871Z,15.30
2019-06-07T05:21:17.865Z,15.60
2019-06-07T05:22:17.892Z,17.00
2019-06-07T05:23:59.854Z,15.70
2019-06-07T05:24:18.835Z,15.40
2019-06-07T05:25:17.812Z,15.50
2019-06-07T05:26:17.801Z,16.30
2019-06-07T05:27:17.881Z,16.10
2019-06-07T05:28:17.814Z,16.00
2019-06-07T05:29:17.808Z,15.50
2019-06-07T05:30:51.019Z,16.10
2019-06-07T05:31:18.796Z,16.50
2019-06-07T05:32:17.740Z,16.50
2019-06-07T05:33:17.869Z,16.60
2019-06-07T05:34:17.797Z,17.10
2019-06-07T05:35:17.785Z,17.80
2019-06-07T05:36:17.699Z,17.20
2019-06-07T05:37:17.790Z,17.40
2019-06-07T05:38:17.718Z,17.20
2019-06-07T05:39:17.795Z,17.40
2019-06-07T05:40:17.680Z,17.10
2019-06-07T05:41:17.633Z,16.50
2019-06-07T05:42:17.640Z,16.90
2019-06-07T05:43:17.675Z,16.00
2019-06-07T05:44:17.646Z,17.20
2019-06-07T05:45:17.592Z,16.40
2019-06-07T05:46:17.585Z,15.90
2019-06-07T05:47:17.573Z,16.50
2019-06-07T05:48:17.623Z,16.00
2019-06-07T05:49:17.543Z,17.20
2019-06-07T05:50:38.359Z,15.30
2019-06-07T05:51:18.547Z,16.90
2019-06-07T05:52:17.550Z,16.40
2019-06-07T05:53:17.626Z,16.50
2019-06-07T05:54:17.490Z,15.80
2019-06-07T05:55:17.528Z,15.90
2019-06-07T05:56:17.929Z,16.10
2019-06-07T05:57:17.460Z,14.50
2019-06-07T05:58:17.497Z,15.00
2019-06-07T05:59:17.432Z,14.00
2019-06-07T06:00:17.459Z,14.40
2019-06-07T06:02:22.103Z,15.00
2019-06-07T06:03:17.410Z,14.30
2019-06-07T06:04:17.473Z,14.80
2019-06-07T06:05:32.375Z,14.30
2019-06-07T06:06:19.107Z,13.90
2019-06-07T06:07:17.365Z,14.40
2019-06-07T06:08:17.372Z,13.80
2019-06-07T06:09:17.460Z,13.70
2019-06-07T06:10:17.339Z,14.20
2019-06-07T06:11:17.319Z,14.40
2019-06-07T06:12:34.255Z,13.80
2019-06-07T06:13:18.330Z,14.50
2019-06-07T06:14:17.271Z,13.10
2019-06-07T06:15:17.303Z,13.60
2019-06-07T06:16:17.310Z,13.30
2019-06-07T06:17:17.228Z,13.70
2019-06-07T06:18:17.312Z,13.10
2019-06-07T06:19:17.209Z,12.70
2019-06-07T06:20:17.216Z,12.80
2019-06-07T06:21:19.951Z,13.60
2019-06-07T06:22:17.188Z,12.00
2019-06-07T06:23:17.256Z,12.50
2019-06-07T06:24:17.508Z,11.70
2019-06-07T06:25:31.991Z,11.40
2019-06-07T06:26:18.846Z,11.00
2019-06-07T06:28:02.127Z,11.00
2019-06-07T06:28:18.151Z,9.90
2019-06-07T06:29:17.167Z,11.80
2019-06-07T06:30:17.176Z,10.40
2019-06-07T06:31:17.080Z,10.00
2019-06-07T06:32:41.121Z,10.80
2019-06-07T06:33:33.237Z,10.30
2019-06-07T06:34:18.322Z,10.70
2019-06-07T06:35:17.042Z,9.10
2019-06-07T06:36:17.074Z,9.20
2019-06-07T06:37:17.010Z,9.50
2019-06-07T06:38:17.001Z,10.10
2019-06-07T06:39:17.064Z,8.30
2019-06-07T06:40:17.047Z,8.60
2019-06-07T06:41:17.170Z,9.00
2019-06-07T06:42:16.992Z,9.30
2019-06-07T06:43:16.962Z,7.80
2019-06-07T06:44:16.926Z,8.60
2019-06-07T06:45:16.932Z,9.00
2019-06-07T06:46:37.333Z,8.30
2019-06-07T06:47:17.967Z,9.10
2019-06-07T06:48:16.949Z,8.50
2019-06-07T06:49:16.874Z,8.80
2019-06-07T06:50:16.875Z,8.90
2019-06-07T06:51:16.888Z,8.40
2019-06-07T06:52:16.869Z,8.90
2019-06-07T06:53:16.852Z,9.50
2019-06-07T06:54:39.033Z,10.70
2019-06-07T06:55:17.840Z,8.90
2019-06-07T06:56:16.801Z,8.90
2019-06-07T06:57:20.249Z,8.70
2019-06-07T06:58:16.779Z,8.30
2019-06-07T07:00:17.814Z,8.60
2019-06-07T07:01:16.824Z,7.90
2019-06-07T07:02:16.875Z,7.90
2019-06-07T07:04:11.239Z,7.60
2019-06-07T07:04:17.710Z,8.00
2019-06-07T07:05:17.141Z,8.20
2019-06-07T07:06:26.067Z,7.20
2019-06-07T07:07:17.701Z,7.90
2019-06-07T07:08:16.667Z,7.10
2019-06-07T07:09:16.657Z,6.40
2019-06-07T07:10:16.645Z,7.20
2019-06-07T07:11:16.701Z,6.40
2019-06-07T07:12:16.626Z,6.20
2019-06-07T07:13:16.620Z,6.50
2019-06-07T07:14:16.683Z,7.70
2019-06-07T07:15:16.615Z,6.20
2019-06-07T07:16:16.578Z,6.30
2019-06-07T07:17:16.632Z,6.20
2019-06-07T07:18:16.555Z,5.70
2019-06-07T07:19:16.544Z,5.50
2019-06-07T07:20:16.530Z,5.50
2019-06-07T07:21:16.531Z,5.80
2019-06-07T07:22:16.515Z,6.80
2019-06-07T07:23:17.435Z,5.60
2019-06-07T07:24:21.480Z,6.30
2019-06-07T07:25:17.492Z,5.10
2019-06-07T07:26:16.610Z,5.20
2019-06-07T07:27:16.595Z,6.20
2019-06-07T07:28:16.449Z,5.70
2019-06-07T07:29:16.442Z,5.80
2019-06-07T07:30:35.924Z,6.70
2019-06-07T07:31:17.494Z,6.40
2019-06-07T07:32:16.426Z,5.50
2019-06-07T07:33:16.789Z,6.00
2019-06-07T07:35:17.381Z,5.80
2019-06-07T07:36:37.635Z,6.00
2019-06-07T07:37:17.435Z,5.00
2019-06-07T07:38:16.384Z,4.90
2019-06-07T07:39:17.308Z,6.50
2019-06-07T07:41:17.380Z,5.70
2019-06-07T07:42:21.243Z,5.50
2019-06-07T07:43:17.364Z,6.40
2019-06-07T07:44:16.284Z,5.20
2019-06-07T07:45:16.274Z,8.10
2019-06-07T07:46:30.819Z,6.80
2019-06-07T07:47:17.236Z,5.50
2019-06-07T07:48:18.504Z,5.40
2019-06-07T07:49:16.229Z,5.20
2019-06-07T07:50:16.225Z,6.20
2019-06-07T07:51:16.213Z,5.00
2019-06-07T07:52:16.234Z,5.20
2019-06-07T07:53:16.196Z,5.80
2019-06-07T07:54:16.271Z,6.80
2019-06-07T07:55:16.269Z,5.90
2019-06-07T07:56:16.371Z,4.70
2019-06-07T07:57:16.127Z,5.30
2019-06-07T07:58:16.131Z,5.20
2019-06-07T07:59:16.191Z,5.00
2019-06-07T08:00:49.387Z,4.10
2019-06-07T08:01:17.140Z,4.10
2019-06-07T08:02:16.067Z,4.10
2019-06-07T08:03:16.109Z,4.60
2019-06-07T08:04:16.090Z,4.30
2019-06-07T08:05:23.247Z,4.60
2019-06-07T08:06:17.020Z,4.70
2019-06-07T08:07:16.013Z,4.80
2019-06-07T08:08:16.096Z,5.10
2019-06-07T08:09:16.008Z,6.50
2019-06-07T08:10:16.024Z,5.10
2019-06-07T08:11:15.985Z,5.60
2019-06-07T08:12:15.962Z,5.50
2019-06-07T08:13:24.919Z,4.80
2019-06-07T08:14:16.981Z,4.60
2019-06-07T08:15:15.951Z,6.40
2019-06-07T08:16:18.666Z,4.40
2019-06-07T08:17:15.979Z,5.40
2019-06-07T08:18:15.897Z,4.50
2019-06-07T08:19:15.944Z,5.40
2019-06-07T08:20:15.930Z,4.80
2019-06-07T08:21:25.381Z,4.30
2019-06-07T08:22:16.893Z,4.00
2019-06-07T08:23:15.904Z,4.20
2019-06-07T08:24:15.897Z,4.80
2019-06-07T08:25:15.812Z,6.50
2019-06-07T08:26:15.813Z,7.10
2019-06-07T08:27:25.813Z,4.30
2019-06-07T08:28:16.824Z,5.40
2019-06-07T08:29:15.792Z,4.20
2019-06-07T08:30:47.234Z,5.70
2019-06-07T08:31:16.766Z,5.20
2019-06-07T08:32:15.735Z,6.20
2019-06-07T08:33:26.101Z,3.60
2019-06-07T08:34:16.716Z,5.10
2019-06-07T08:36:02.481Z,4.30
2019-06-07T08:36:25.128Z,4.70
2019-06-07T08:37:16.685Z,5.80
2019-06-07T08:38:26.713Z,4.10
2019-06-07T08:39:16.666Z,4.60
2019-06-07T08:40:15.697Z,4.60
2019-06-07T08:41:15.714Z,5.50
2019-06-07T08:42:21.609Z,4.70
2019-06-07T08:43:20.888Z,4.30
2019-06-07T08:44:23.871Z,5.50
2019-06-07T08:45:16.596Z,4.50
2019-06-07T08:46:15.578Z,3.50
2019-06-07T08:47:20.639Z,4.10
2019-06-07T08:48:27.435Z,4.10
2019-06-07T08:49:16.564Z,4.70
2019-06-07T08:50:15.695Z,5.20
2019-06-07T08:51:15.545Z,4.30
2019-06-07T08:52:15.611Z,3.80
2019-06-07T08:53:15.592Z,3.90
2019-06-07T08:54:22.985Z,3.40
2019-06-07T08:55:16.474Z,4.70
2019-06-07T08:56:15.515Z,5.10
2019-06-07T08:57:21.104Z,3.80
2019-06-07T08:58:16.557Z,3.50
2019-06-07T08:59:15.679Z,3.90
2019-06-07T09:00:42.987Z,3.20
2019-06-07T09:01:16.503Z,5.80
2019-06-07T09:02:23.705Z,4.30
2019-06-07T09:03:16.411Z,4.40
2019-06-07T09:04:15.576Z,3.40
2019-06-07T09:05:15.430Z,5.50
2019-06-07T09:07:01.078Z,3.70
2019-06-07T09:07:19.801Z,4.30
2019-06-07T09:08:29.409Z,3.50
2019-06-07T09:09:16.322Z,7.50
2019-06-07T09:10:15.739Z,3.50
2019-06-07T09:11:15.328Z,4.20
2019-06-07T09:12:15.337Z,5.30
2019-06-07T09:13:15.336Z,3.70
2019-06-07T09:14:15.303Z,5.40
2019-06-07T09:15:23.302Z,3.40
2019-06-07T09:16:16.879Z,3.50
2019-06-07T09:17:15.319Z,3.00
2019-06-07T09:18:42.143Z,3.10
2019-06-07T09:19:16.252Z,5.10
2019-06-07T09:20:35.267Z,4.70
2019-06-07T09:21:16.264Z,8.10
2019-06-07T09:22:15.181Z,4.60
2019-06-07T09:23:17.421Z,4.90
2019-06-07T09:24:15.162Z,7.30
2019-06-07T09:25:20.865Z,4.30
2019-06-07T09:26:18.741Z,4.20
2019-06-07T09:27:15.283Z,4.10
2019-06-07T09:28:19.776Z,5.50
2019-06-07T09:29:16.178Z,5.80
2019-06-07T09:30:18.522Z,3.20
2019-06-07T09:31:15.088Z,4.40
2019-06-07T09:32:18.309Z,5.10
2019-06-07T09:33:15.213Z,6.40
2019-06-07T09:34:15.722Z,6.10
2019-06-07T09:35:17.694Z,3.80
2019-06-07T09:36:15.044Z,4.40
2019-06-07T09:38:03.204Z,4.30
2019-06-07T09:38:25.592Z,5.30
2019-06-07T09:39:16.069Z,3.00
2019-06-07T09:40:24.113Z,3.40
2019-06-07T09:41:16.141Z,3.60
2019-06-07T09:42:15.012Z,4.10
2019-06-07T09:44:25.141Z,3.30
2019-06-07T09:45:16.015Z,5.20
2019-06-07T09:46:16.516Z,4.20
2019-06-07T09:47:31.215Z,4.30
2019-06-07T09:48:47.628Z,3.50
2019-06-07T09:49:28.617Z,3.80
2019-06-07T09:50:15.866Z,6.30
2019-06-07T09:51:19.859Z,3.90
2019-06-07T09:52:15.859Z,5.20
2019-06-07T09:53:22.625Z,2.40
2019-06-07T09:55:02.308Z,3.40
2019-06-07T09:55:24.522Z,4.00
2019-06-07T09:56:15.894Z,4.40
2019-06-07T09:57:17.543Z,3.70
2019-06-07T09:58:50.137Z,2.90
2019-06-07T09:59:16.297Z,3.10
2019-06-07T10:00:39.050Z,3.70
2019-06-07T10:01:15.757Z,3.20
2019-06-07T10:02:14.763Z,2.90
2019-06-07T10:03:21.030Z,4.30
2019-06-07T10:04:30.136Z,5.30
2019-06-07T10:05:15.804Z,3.50
2019-06-07T10:06:14.866Z,3.40
2019-06-07T10:07:30.831Z,3.70
2019-06-07T10:09:00.979Z,3.40
2019-06-07T10:11:15.690Z,2.30
2019-06-07T10:12:14.651Z,3.40
2019-06-07T10:13:14.659Z,4.20
2019-06-07T10:14:14.597Z,2.70
2019-06-07T10:15:14.595Z,2.60
2019-06-07T10:16:14.577Z,4.80
2019-06-07T10:17:14.623Z,2.90
2019-06-07T10:18:14.570Z,2.70
2019-06-07T10:19:14.574Z,2.70
2019-06-07T10:20:14.553Z,4.80
2019-06-07T10:21:15.467Z,3.10
2019-06-07T10:22:14.557Z,2.90
2019-06-07T10:23:14.559Z,4.30
2019-06-07T10:24:14.567Z,3.80
2019-06-07T10:25:14.514Z,5.20
2019-06-07T10:26:15.008Z,3.80
2019-06-07T10:27:14.490Z,2.50
2019-06-07T10:28:14.490Z,2.50
2019-06-07T10:29:14.471Z,3.00
2019-06-07T10:30:14.424Z,4.20
2019-06-07T10:31:14.569Z,5.50
2019-06-07T10:32:14.536Z,5.00
2019-06-07T10:33:14.510Z,4.00
2019-06-07T10:34:14.758Z,4.80
2019-06-07T10:35:16.434Z,5.80
2019-06-07T10:36:14.364Z,5.80
2019-06-07T10:37:15.581Z,5.20
2019-06-07T10:38:14.486Z,3.80
2019-06-07T10:39:14.309Z,3.20
2019-06-07T10:40:14.333Z,5.50
2019-06-07T10:41:14.634Z,4.90
2019-06-07T10:42:14.329Z,3.00
2019-06-07T10:43:14.650Z,8.40
2019-06-07T10:44:14.321Z,8.20
2019-06-07T10:45:14.451Z,3.30
2019-06-07T10:46:14.304Z,3.80
2019-06-07T10:47:14.236Z,2.80
2019-06-07T10:48:14.262Z,6.80
2019-06-07T10:49:14.241Z,3.90
2019-06-07T10:50:14.234Z,3.50
2019-06-07T10:51:14.867Z,4.20
2019-06-07T10:52:14.215Z,2.60
2019-06-07T10:53:14.486Z,7.70
2019-06-07T10:54:24.151Z,3.20
2019-06-07T10:55:15.159Z,3.20
2019-06-07T10:56:14.170Z,3.50
2019-06-07T10:57:16.075Z,2.50
2019-06-07T10:58:14.129Z,3.00
2019-06-07T10:59:14.109Z,5.40
2019-06-07T11:00:14.855Z,2.20
2019-06-07T11:01:14.525Z,2.60
2019-06-07T11:02:14.263Z,3.10
2019-06-07T11:03:14.314Z,3.30
2019-06-07T11:04:14.095Z,7.00
2019-06-07T11:05:14.498Z,5.30
2019-06-07T11:06:14.416Z,6.10
2019-06-07T11:07:14.461Z,3.50
2019-06-07T11:08:15.035Z,4.50
2019-06-07T11:09:14.279Z,3.60
2019-06-07T11:10:19.461Z,2.50
2019-06-07T11:11:15.078Z,3.90
2019-06-07T11:12:15.289Z,3.40
2019-06-07T11:13:14.454Z,5.60
2019-06-07T11:14:14.767Z,4.00
2019-06-07T11:15:14.981Z,6.20
2019-06-07T11:16:15.477Z,2.50
2019-06-07T11:17:15.741Z,2.50
2019-06-07T11:18:14.415Z,2.60
2019-06-07T11:19:17.666Z,2.50
2019-06-07T11:20:14.375Z,2.60
2019-06-07T11:21:14.355Z,3.60
2019-06-07T11:22:14.271Z,2.00
2019-06-07T11:23:14.332Z,4.00
2019-06-07T11:24:14.413Z,4.60
2019-06-07T11:25:14.717Z,1.90
2019-06-07T11:26:14.468Z,2.90
2019-06-07T11:27:16.241Z,3.00
2019-06-07T11:28:14.718Z,1.80
2019-06-07T11:29:14.943Z,3.70
2019-06-07T11:30:14.541Z,3.30
2019-06-07T11:31:15.093Z,4.00
2019-06-07T11:32:14.676Z,2.80
2019-06-07T11:33:16.346Z,4.00
2019-06-07T11:34:14.677Z,3.70
2019-06-07T11:35:15.416Z,3.80
2019-06-07T11:36:15.291Z,1.90
2019-06-07T11:37:15.580Z,3.20
2019-06-07T11:38:14.653Z,2.30
2019-06-07T11:39:15.149Z,1.90
2019-06-07T11:40:31.912Z,4.20
2019-06-07T11:41:15.835Z,3.60
2019-06-07T11:42:14.033Z,4.40
2019-06-07T11:43:14.853Z,2.00
2019-06-07T11:44:14.994Z,3.20
2019-06-07T11:45:15.433Z,4.60
2019-06-07T11:46:13.623Z,7.40
2019-06-07T11:47:14.551Z,4.40
2019-06-07T11:48:13.568Z,2.40
2019-06-07T11:49:19.881Z,2.30
2019-06-07T11:50:15.723Z,4.50
2019-06-07T11:51:14.947Z,3.10
2019-06-07T11:52:13.988Z,4.20
2019-06-07T11:53:14.648Z,3.90
2019-06-07T11:54:14.134Z,2.00
2019-06-07T11:55:15.796Z,3.50
2019-06-07T11:56:14.013Z,2.60
2019-06-07T11:57:15.061Z,3.20
2019-06-07T11:58:17.251Z,2.20
2019-06-07T11:59:15.311Z,4.90
2019-06-07T12:00:14.073Z,3.40
2019-06-07T12:01:14.888Z,4.10
2019-06-07T12:02:13.487Z,3.30
2019-06-07T12:03:13.827Z,3.90
2019-06-07T12:04:14.078Z,2.00
2019-06-07T12:05:16.623Z,2.80
2019-06-07T12:06:14.961Z,5.40
2019-06-07T12:07:15.129Z,2.40
2019-06-07T12:08:14.018Z,3.10
2019-06-07T12:09:14.542Z,2.70
2019-06-07T12:10:16.544Z,5.10
2019-06-07T12:11:14.460Z,3.20
2019-06-07T12:12:14.478Z,2.60
2019-06-07T12:13:15.385Z,4.00
2019-06-07T12:14:14.605Z,2.00
2019-06-07T12:15:13.303Z,1.80
2019-06-07T12:16:13.396Z,8.80
2019-06-07T12:17:13.463Z,5.90
2019-06-07T12:18:13.282Z,2.60
2019-06-07T12:19:13.612Z,3.90
2019-06-07T12:20:14.784Z,4.20
2019-06-07T12:21:13.641Z,5.60
2019-06-07T12:22:13.873Z,2.10
2019-06-07T12:23:14.187Z,3.00
2019-06-07T12:24:14.171Z,6.30
2019-06-07T12:25:19.006Z,3.50
2019-06-07T12:26:14.513Z,4.80
2019-06-07T12:27:14.608Z,1.90
2019-06-07T12:28:13.153Z,3.30
2019-06-07T12:29:13.154Z,2.50
2019-06-07T12:30:19.376Z,2.30
2019-06-07T12:31:15.057Z,4.90
2019-06-07T12:32:13.326Z,2.60
2019-06-07T12:33:13.662Z,2.90
2019-06-07T12:34:13.370Z,3.70
2019-06-07T12:35:13.632Z,3.30
2019-06-07T12:36:13.565Z,4.80
2019-06-07T12:37:13.920Z,2.20
2019-06-07T12:38:14.587Z,4.20
2019-06-07T12:39:13.886Z,4.60
2019-06-07T12:40:22.658Z,3.80
2019-06-07T12:41:14.084Z,2.60
2019-06-07T12:42:14.909Z,3.60
2019-06-07T12:43:14.452Z,3.60
2019-06-07T12:44:14.460Z,2.20
2019-06-07T12:45:30.697Z,2.80
2019-06-07T12:46:19.100Z,4.10
2019-06-07T12:47:15.000Z,3.70
2019-06-07T12:48:18.544Z,3.90
2019-06-07T12:49:14.995Z,4.00
2019-06-07T12:50:13.476Z,7.10
2019-06-07T12:51:13.197Z,4.30
2019-06-07T12:52:15.679Z,4.20
2019-06-07T12:53:13.616Z,3.70
2019-06-07T12:54:13.324Z,3.30
2019-06-07T12:55:13.909Z,3.30
2019-06-07T12:56:13.526Z,5.80
2019-06-07T12:57:13.824Z,2.90
2019-06-07T12:58:13.804Z,3.90
2019-06-07T12:59:13.886Z,3.30
2019-06-07T13:00:14.145Z,2.60
2019-06-07T13:01:13.880Z,4.00
2019-06-07T13:02:14.133Z,2.10
2019-06-07T13:03:14.159Z,2.70
2019-06-07T13:04:12.739Z,2.60
2019-06-07T13:05:12.786Z,4.10
2019-06-07T13:06:12.748Z,2.90
2019-06-07T13:07:12.737Z,4.80
2019-06-07T13:08:12.769Z,2.80
2019-06-07T13:09:12.686Z,2.40
2019-06-07T13:10:12.821Z,2.60
2019-06-07T13:11:17.590Z,5.10
2019-06-07T13:12:13.653Z,2.20
2019-06-07T13:13:12.639Z,3.40
2019-06-07T13:14:12.711Z,1.80
2019-06-07T13:15:15.921Z,2.50
2019-06-07T13:16:13.885Z,2.80
2019-06-07T13:17:13.009Z,4.60
2019-06-07T13:18:14.968Z,1.70
2019-06-07T13:19:12.581Z,3.40